createdAt,value
2023-03-06T00:01:30.085Z,35.08
2023-03-06T00:03:59.254Z,31.73
2023-03-06T00:06:27.754Z,30.77
2023-03-06T00:08:56.179Z,24.85
2023-03-06T00:11:25.304Z,23.27
2023-03-06T00:13:54.102Z,22.25
2023-03-06T00:16:25.134Z,22.63
2023-03-06T00:18:54.142Z,29.38
2023-03-06T00:21:22.580Z,22.50
2023-03-06T00:23:51.599Z,26.20
2023-03-06T00:26:21.067Z,23.55
2023-03-06T00:28:50.135Z,21.48
2023-03-06T00:31:19.255Z,21.13
2023-03-06T00:33:49.656Z,24.65
2023-03-06T00:36:20.491Z,26.77
2023-03-06T00:38:50.694Z,28.60
2023-03-06T00:41:19.468Z,31.45
2023-03-06T00:43:48.286Z,33.70
2023-03-06T00:46:16.907Z,32.53
2023-03-06T00:48:45.772Z,39.78
2023-03-06T00:51:17.557Z,30.48
2023-03-06T00:53:46.464Z,30.55
2023-03-06T00:56:14.991Z,27.20
2023-03-06T00:58:44.158Z,33.58
2023-03-06T01:01:12.971Z,29.17
2023-03-06T01:03:42.592Z,30.95
2023-03-06T01:06:13.453Z,28.10
2023-03-06T01:08:43.567Z,27.48
2023-03-06T01:11:12.312Z,33.05
2023-03-06T01:13:42.726Z,38.72
2023-03-06T01:16:14.388Z,39.70
2023-03-06T01:18:44.039Z,30.25
2023-03-06T01:21:13.565Z,43.25
2023-03-06T01:23:43.637Z,38.25
2023-03-06T01:26:12.133Z,38.97
2023-03-06T01:28:40.792Z,37.95
2023-03-06T01:31:10.654Z,29.85
2023-03-06T01:33:39.582Z,36.72
2023-03-06T01:36:10.577Z,39.22
2023-03-06T01:38:39.744Z,34.03
2023-03-06T01:41:15.812Z,44.58
2023-03-06T01:43:46.487Z,41.80
2023-03-06T01:46:25.326Z,38.55
2023-03-06T01:48:56.872Z,38.42
2023-03-06T01:51:29.894Z,37.67
2023-03-06T01:54:01.356Z,40.17
2023-03-06T01:56:31.454Z,38.97
2023-03-06T01:59:01.012Z,32.90
2023-03-06T02:01:31.516Z,34.10
2023-03-06T02:04:02.352Z,34.30
2023-03-06T02:06:31.158Z,33.47
2023-03-06T02:09:05.840Z,31.05
2023-03-06T02:11:35.853Z,30.40
2023-03-06T02:14:04.598Z,23.48
2023-03-06T02:16:34.504Z,27.52
2023-03-06T02:19:03.875Z,23.90
2023-03-06T02:21:36.514Z,22.85
2023-03-06T02:24:15.908Z,23.08
2023-03-06T02:26:47.855Z,24.10
2023-03-06T02:29:23.181Z,24.15
2023-03-06T02:31:51.677Z,25.95
2023-03-06T02:34:54.492Z,22.23
2023-03-06T02:37:25.018Z,21.02
2023-03-06T02:42:30.085Z,19.10
2023-03-06T02:45:03.538Z,18.42
2023-03-06T02:50:00.876Z,20.08
2023-03-06T02:52:29.493Z,22.13
2023-03-06T02:54:58.002Z,23.58
2023-03-06T02:57:26.607Z,25.13
2023-03-06T02:59:56.952Z,19.83
2023-03-06T03:02:25.754Z,22.67
2023-03-06T03:04:54.355Z,22.05
2023-03-06T03:07:22.790Z,22.98
2023-03-06T03:09:51.199Z,19.73
2023-03-06T03:12:21.404Z,16.23
2023-03-06T03:14:49.957Z,21.23
2023-03-06T03:17:20.389Z,17.02
2023-03-06T03:19:49.206Z,16.50
2023-03-06T03:22:18.628Z,23.45
2023-03-06T03:24:47.730Z,22.75
2023-03-06T03:27:16.602Z,19.15
2023-03-06T03:29:46.054Z,18.02
2023-03-06T03:32:15.062Z,20.13
2023-03-06T03:34:45.595Z,18.13
2023-03-06T03:37:15.140Z,19.95
2023-03-06T03:39:44.586Z,21.33
2023-03-06T03:42:13.569Z,18.95
2023-03-06T03:44:41.974Z,20.40
2023-03-06T03:47:10.461Z,15.68
2023-03-06T03:49:39.107Z,21.63
2023-03-06T03:52:09.838Z,19.33
2023-03-06T03:54:40.206Z,18.02
2023-03-06T03:57:08.640Z,22.38
2023-03-06T03:59:41.656Z,23.58
2023-03-06T04:05:34.153Z,19.48
2023-03-06T04:08:06.525Z,19.60
2023-03-06T04:10:39.530Z,21.40
2023-03-06T04:13:10.368Z,18.25
2023-03-06T04:15:43.220Z,18.13
2023-03-06T04:18:12.882Z,21.70
2023-03-06T04:20:42.199Z,21.85
2023-03-06T04:23:13.312Z,18.40
2023-03-06T04:25:41.901Z,17.70
2023-03-06T04:28:13.626Z,18.40
2023-03-06T04:30:42.136Z,17.15
2023-03-06T04:33:11.249Z,20.98
2023-03-06T04:35:40.225Z,15.65
2023-03-06T04:38:15.561Z,18.73
2023-03-06T04:40:45.109Z,20.60
2023-03-06T04:43:13.961Z,19.80
2023-03-06T04:45:42.550Z,20.05
2023-03-06T04:48:13.847Z,21.67
2023-03-06T04:50:42.805Z,18.15
2023-03-06T04:53:11.542Z,18.27
2023-03-06T04:55:41.752Z,15.50
2023-03-06T04:58:12.702Z,18.00
2023-03-06T05:00:41.398Z,22.35
2023-03-06T05:03:10.590Z,17.08
2023-03-06T05:05:39.017Z,22.02
2023-03-06T05:08:08.011Z,24.77
2023-03-06T05:10:36.472Z,18.55
2023-03-06T05:13:06.896Z,17.15
2023-03-06T05:15:35.376Z,25.00
2023-03-06T05:18:03.903Z,19.63
2023-03-06T05:20:32.354Z,22.63
2023-03-06T05:23:00.737Z,20.48
2023-03-06T05:25:29.277Z,22.17
2023-03-06T05:27:58.549Z,20.48
2023-03-06T05:30:28.460Z,24.15
2023-03-06T05:32:57.271Z,25.38
2023-03-06T05:35:26.077Z,21.98
2023-03-06T05:37:54.505Z,17.30
2023-03-06T05:40:23.346Z,22.15
2023-03-06T05:42:51.898Z,27.40
2023-03-06T05:45:20.802Z,25.10
2023-03-06T05:47:50.843Z,23.42
2023-03-06T05:50:19.607Z,21.63
2023-03-06T05:52:48.305Z,24.85
2023-03-06T05:55:16.935Z,28.48
2023-03-06T05:57:45.427Z,24.15
2023-03-06T06:00:16.139Z,24.50
2023-03-06T06:02:47.054Z,23.05
2023-03-06T06:05:17.269Z,28.23
2023-03-06T06:07:45.715Z,26.55
2023-03-06T06:10:14.309Z,27.83
2023-03-06T06:12:42.815Z,34.50
2023-03-06T06:15:11.891Z,33.80
2023-03-06T06:17:40.931Z,30.02
2023-03-06T06:20:10.856Z,29.90
2023-03-06T06:22:40.729Z,26.60
2023-03-06T06:25:10.045Z,23.90
2023-03-06T06:27:38.898Z,25.25
2023-03-06T06:30:08.721Z,21.83
2023-03-06T06:32:38.119Z,24.20
2023-03-06T06:35:07.805Z,28.55
2023-03-06T06:37:36.630Z,32.47
2023-03-06T06:40:07.747Z,24.95
2023-03-06T06:42:39.855Z,29.40
2023-03-06T06:45:10.172Z,25.52
2023-03-06T06:47:41.615Z,32.38
2023-03-06T06:52:41.863Z,29.43
2023-03-06T06:55:13.307Z,28.73
2023-03-06T06:57:42.580Z,33.58
2023-03-06T07:00:15.413Z,31.02
2023-03-06T07:02:44.390Z,31.48
2023-03-06T07:05:12.958Z,31.58
2023-03-06T07:07:42.333Z,35.90
2023-03-06T07:10:16.664Z,42.97
2023-03-06T07:12:45.244Z,34.58
2023-03-06T07:15:16.154Z,24.00
2023-03-06T07:17:44.878Z,29.15
2023-03-06T07:20:13.467Z,30.42
2023-03-06T07:22:50.885Z,25.52
2023-03-06T07:25:22.574Z,28.20
2023-03-06T07:27:54.252Z,27.52
2023-03-06T07:30:23.976Z,29.70
2023-03-06T07:32:56.615Z,33.03
2023-03-06T07:35:26.072Z,32.65
2023-03-06T07:37:55.136Z,31.38
2023-03-06T07:40:26.538Z,41.15
2023-03-06T07:43:06.083Z,39.30
2023-03-06T07:45:47.031Z,35.45
2023-03-06T07:48:15.576Z,34.42
2023-03-06T07:50:44.073Z,36.95
2023-03-06T07:53:12.991Z,29.38
2023-03-06T07:55:43.081Z,30.10
2023-03-06T07:58:12.047Z,34.72
2023-03-06T08:00:40.505Z,30.30
2023-03-06T08:03:10.533Z,32.63
2023-03-06T08:05:39.543Z,35.40
2023-03-06T08:08:08.925Z,28.08
2023-03-06T08:10:37.526Z,34.53
2023-03-06T08:13:07.490Z,29.98
2023-03-06T08:15:35.848Z,33.17
2023-03-06T08:18:04.725Z,49.40
2023-03-06T08:20:33.317Z,39.17
2023-03-06T08:23:02.469Z,39.20
2023-03-06T08:25:31.042Z,31.85
2023-03-06T08:28:05.721Z,28.45
2023-03-06T08:30:36.970Z,32.13
2023-03-06T08:33:05.660Z,28.00
2023-03-06T08:35:34.078Z,31.38
2023-03-06T08:38:02.776Z,38.08
2023-03-06T08:40:31.766Z,38.70
2023-03-06T08:43:00.360Z,31.13
2023-03-06T08:45:29.101Z,30.88
2023-03-06T08:47:59.224Z,25.27
2023-03-06T08:50:27.688Z,22.38
2023-03-06T08:52:56.618Z,26.35
2023-03-06T08:55:25.612Z,25.70
2023-03-06T08:57:54.150Z,32.90
2023-03-06T09:00:23.246Z,41.72
2023-03-06T09:02:51.770Z,34.47
2023-03-06T09:05:22.316Z,44.72
2023-03-06T09:07:51.189Z,33.38
2023-03-06T09:10:23.194Z,78.82
2023-03-06T09:15:24.493Z,86.75
2023-03-06T09:17:54.313Z,66.00
2023-03-06T09:20:24.361Z,45.95
2023-03-06T09:22:53.138Z,27.98
2023-03-06T09:25:23.385Z,26.55
2023-03-06T09:28:08.646Z,20.30
2023-03-06T09:30:41.537Z,18.20
2023-03-06T09:33:10.314Z,23.55
2023-03-06T09:35:48.062Z,40.58
2023-03-06T09:38:16.678Z,27.08
2023-03-06T09:41:02.079Z,17.77
2023-03-06T09:43:33.203Z,15.30
2023-03-06T09:46:01.663Z,20.13
2023-03-06T09:48:40.961Z,17.42
2023-03-06T09:51:16.468Z,22.90
2023-03-06T09:54:03.598Z,18.33
2023-03-06T09:56:35.585Z,18.00
2023-03-06T09:59:12.589Z,15.18
2023-03-06T10:01:45.937Z,13.93
2023-03-06T10:04:33.710Z,15.40
2023-03-06T10:07:12.763Z,16.70
2023-03-06T10:09:47.774Z,17.30
2023-03-06T10:12:24.994Z,15.50
2023-03-06T10:15:01.723Z,14.68
2023-03-06T10:17:36.805Z,16.38
2023-03-06T10:20:18.374Z,30.35
2023-03-06T10:23:05.089Z,18.25
2023-03-06T10:25:38.991Z,19.77
2023-03-06T10:28:16.924Z,28.23
2023-03-06T10:30:56.286Z,22.38
2023-03-06T10:33:34.786Z,29.48
2023-03-06T10:36:03.309Z,33.72
2023-03-06T10:38:38.439Z,56.28
2023-03-06T10:41:22.622Z,29.70
2023-03-06T10:44:25.189Z,26.67
2023-03-06T10:46:56.412Z,30.52
2023-03-06T10:49:33.818Z,40.70
2023-03-06T10:52:06.994Z,32.10
2023-03-06T10:54:38.771Z,39.95
2023-03-06T10:57:26.035Z,33.42
2023-03-06T10:59:59.042Z,45.35
2023-03-06T11:02:31.550Z,49.88
2023-03-06T11:05:02.033Z,44.75
2023-03-06T11:07:31.608Z,46.78
2023-03-06T11:10:06.308Z,41.78
2023-03-06T11:12:36.886Z,50.90
2023-03-06T11:15:22.876Z,32.75
2023-03-06T11:17:58.699Z,44.45
2023-03-06T11:20:44.645Z,49.92
2023-03-06T11:23:21.035Z,36.65
2023-03-06T11:25:56.743Z,81.82
2023-03-06T11:28:30.160Z,69.18
2023-03-06T11:31:04.194Z,37.92
2023-03-06T11:33:40.765Z,55.40
2023-03-06T11:36:16.585Z,43.42
2023-03-06T11:38:50.292Z,57.17
2023-03-06T11:41:32.591Z,34.53
2023-03-06T11:44:14.652Z,40.17
2023-03-06T11:46:49.677Z,30.08
2023-03-06T11:49:24.738Z,31.63
2023-03-06T11:51:56.915Z,25.85
2023-03-06T11:54:26.246Z,33.55
2023-03-06T11:56:59.789Z,56.55
2023-03-06T11:59:51.711Z,41.15
2023-03-06T12:02:30.640Z,36.22
2023-03-06T12:05:23.011Z,36.05
2023-03-06T12:08:00.615Z,36.70
2023-03-06T12:10:36.774Z,32.75
2023-03-06T12:13:37.062Z,31.08
2023-03-06T12:16:34.669Z,27.58
2023-03-06T12:19:19.930Z,29.48
2023-03-06T12:21:59.436Z,24.95
2023-03-06T12:24:46.319Z,27.67
2023-03-06T12:27:24.005Z,32.05
2023-03-06T12:30:22.143Z,29.13
2023-03-06T12:32:59.015Z,26.33
2023-03-06T12:35:50.900Z,24.80
2023-03-06T12:38:38.730Z,28.13
2023-03-06T12:41:21.878Z,27.00
2023-03-06T12:44:14.267Z,33.55
2023-03-06T12:46:48.206Z,28.13
2023-03-06T12:49:31.804Z,31.33
2023-03-06T12:52:03.861Z,27.95
2023-03-06T12:54:37.737Z,28.88
2023-03-06T12:57:09.765Z,25.77
2023-03-06T12:59:42.932Z,25.13
2023-03-06T13:02:58.084Z,24.98
2023-03-06T13:05:57.340Z,25.13
2023-03-06T13:09:00.104Z,21.25
2023-03-06T13:12:02.142Z,21.98
2023-03-06T13:14:54.673Z,22.15
2023-03-06T13:17:41.392Z,19.13
2023-03-06T13:20:42.336Z,22.58
2023-03-06T13:24:01.290Z,18.98
2023-03-06T13:26:55.570Z,17.13
2023-03-06T13:30:00.885Z,19.65
2023-03-06T13:32:34.907Z,21.60
2023-03-06T13:35:04.277Z,19.67
2023-03-06T13:37:50.853Z,17.38
2023-03-06T13:40:31.515Z,40.22
2023-03-06T13:43:26.154Z,94.90
2023-03-06T13:45:54.861Z,26.75
2023-03-06T13:48:47.646Z,16.65
2023-03-06T13:51:24.349Z,22.75
2023-03-06T13:54:27.292Z,16.90
2023-03-06T13:57:14.900Z,15.90
2023-03-06T14:00:12.062Z,15.52
2023-03-06T14:03:14.403Z,16.45
2023-03-06T14:05:45.453Z,19.48
2023-03-06T14:08:17.937Z,15.32
2023-03-06T14:10:49.603Z,15.57
2023-03-06T14:13:23.548Z,13.32
2023-03-06T14:15:55.857Z,14.02
2023-03-06T14:20:58.931Z,10.77
2023-03-06T14:23:33.604Z,11.77
2023-03-06T14:26:10.094Z,11.25
2023-03-06T14:28:38.783Z,11.82
2023-03-06T14:31:17.431Z,12.35
2023-03-06T14:33:52.991Z,11.15
2023-03-06T14:36:23.864Z,12.77
2023-03-06T14:38:55.034Z,11.05
2023-03-06T14:41:27.061Z,9.98
2023-03-06T14:44:09.652Z,11.40
2023-03-06T14:46:39.959Z,9.98
2023-03-06T14:49:08.960Z,10.95
2023-03-06T14:51:43.720Z,10.35
2023-03-06T14:54:19.666Z,11.77
2023-03-06T14:56:53.175Z,11.30
2023-03-06T14:59:26.422Z,12.18
2023-03-06T15:02:00.759Z,13.05
2023-03-06T15:04:36.855Z,13.48
2023-03-06T15:07:10.896Z,11.95
2023-03-06T15:09:40.861Z,11.52
2023-03-06T15:12:38.739Z,12.70
2023-03-06T15:15:30.327Z,9.60
2023-03-06T15:18:01.441Z,10.77
2023-03-06T15:20:43.308Z,8.60
2023-03-06T15:23:21.764Z,7.88
2023-03-06T15:25:52.799Z,10.07
2023-03-06T15:28:37.168Z,9.38
2023-03-06T15:31:20.756Z,10.32
2023-03-06T15:34:27.937Z,8.73
2023-03-06T15:36:58.938Z,7.93
2023-03-06T15:39:30.580Z,9.00
2023-03-06T15:42:00.295Z,7.93
2023-03-06T15:44:32.874Z,9.93
2023-03-06T15:47:09.393Z,9.55
2023-03-06T15:49:41.051Z,9.93
2023-03-06T15:52:11.503Z,9.23
2023-03-06T15:54:40.235Z,13.07
2023-03-06T15:57:18.732Z,19.83
2023-03-06T15:59:47.695Z,17.40
2023-03-06T16:02:19.027Z,12.43
2023-03-06T16:04:49.649Z,12.10
2023-03-06T16:07:18.712Z,10.35
2023-03-06T16:09:47.849Z,10.50
2023-03-06T16:12:18.764Z,9.73
2023-03-06T16:14:48.733Z,12.77
2023-03-06T16:17:17.931Z,10.85
2023-03-06T16:19:48.271Z,9.68
2023-03-06T16:22:16.823Z,14.10
2023-03-06T16:24:45.511Z,13.57
2023-03-06T16:27:19.249Z,14.07
2023-03-06T16:29:47.816Z,19.55
2023-03-06T16:32:17.660Z,20.15
2023-03-06T16:34:46.489Z,16.65
2023-03-06T16:37:16.989Z,14.93
2023-03-06T16:39:45.610Z,15.98
2023-03-06T16:42:14.148Z,17.00
2023-03-06T16:44:42.916Z,17.83
2023-03-06T16:47:13.148Z,18.50
2023-03-06T16:49:42.351Z,17.45
2023-03-06T16:52:12.239Z,18.50
2023-03-06T16:54:44.600Z,16.15
2023-03-06T16:57:15.778Z,20.88
2023-03-06T16:59:44.428Z,20.48
2023-03-06T17:02:13.669Z,21.83
2023-03-06T17:04:42.512Z,22.40
2023-03-06T17:07:11.946Z,19.98
2023-03-06T17:09:42.161Z,21.10
2023-03-06T17:12:11.333Z,21.40
2023-03-06T17:14:40.585Z,22.00
2023-03-06T17:17:09.144Z,20.35
2023-03-06T17:19:38.698Z,22.30
2023-03-06T17:22:07.631Z,20.67
2023-03-06T17:24:37.690Z,20.88
2023-03-06T17:27:08.109Z,22.55
2023-03-06T17:29:36.786Z,17.13
2023-03-06T17:32:05.724Z,12.38
2023-03-06T17:34:34.448Z,11.20
2023-03-06T17:37:06.498Z,10.95
2023-03-06T17:42:05.262Z,9.13
2023-03-06T17:44:35.836Z,10.80
2023-03-06T17:47:04.854Z,13.68
2023-03-06T17:49:33.593Z,12.10
2023-03-06T17:52:03.771Z,12.25
2023-03-06T17:54:33.428Z,14.77
2023-03-06T17:57:03.760Z,12.65
2023-03-06T17:59:35.347Z,12.75
2023-03-06T18:02:06.497Z,12.98
2023-03-06T18:04:35.258Z,11.57
2023-03-06T18:07:04.158Z,15.13
2023-03-06T18:09:32.746Z,15.07
2023-03-06T18:12:01.788Z,13.32
2023-03-06T18:14:30.708Z,17.30
2023-03-06T18:17:00.930Z,20.10
2023-03-06T18:19:29.866Z,29.42
2023-03-06T18:21:58.594Z,24.48
2023-03-06T18:24:27.465Z,18.08
2023-03-06T18:26:56.061Z,18.48
2023-03-06T18:29:24.705Z,17.75
2023-03-06T18:31:53.530Z,16.05
2023-03-06T18:34:24.011Z,14.27
2023-03-06T18:36:53.057Z,13.70
2023-03-06T18:39:22.602Z,20.05
2023-03-06T18:41:51.988Z,18.40
2023-03-06T18:44:21.111Z,14.35
2023-03-06T18:46:50.086Z,14.90
2023-03-06T18:49:19.280Z,15.02
2023-03-06T18:51:51.134Z,14.85
2023-03-06T18:54:20.477Z,15.32
2023-03-06T18:56:49.701Z,24.75
2023-03-06T18:59:19.008Z,28.27
2023-03-06T19:01:48.829Z,30.25
2023-03-06T19:04:17.367Z,27.10
2023-03-06T19:06:46.275Z,35.35
2023-03-06T19:09:16.568Z,22.23
2023-03-06T19:11:47.005Z,25.70
2023-03-06T19:14:16.365Z,20.10
2023-03-06T19:16:45.317Z,22.67
2023-03-06T19:19:13.895Z,17.92
2023-03-06T19:21:42.977Z,16.90
2023-03-06T19:24:14.197Z,20.40
2023-03-06T19:26:44.436Z,17.58
2023-03-06T19:29:13.159Z,19.42
2023-03-06T19:31:43.303Z,19.30
2023-03-06T19:34:12.048Z,18.40
2023-03-06T19:36:40.978Z,22.95
2023-03-06T19:39:09.998Z,20.58
2023-03-06T19:41:38.669Z,22.80
2023-03-06T19:44:09.368Z,23.42
2023-03-06T19:46:40.822Z,20.70
2023-03-06T19:49:12.268Z,20.95
2023-03-06T19:51:40.917Z,22.17
2023-03-06T19:54:10.725Z,18.30
2023-03-06T19:56:39.430Z,20.95
2023-03-06T19:59:09.891Z,20.13
2023-03-06T20:01:38.794Z,17.63
2023-03-06T20:04:07.520Z,17.48
2023-03-06T20:06:36.895Z,19.05
2023-03-06T20:09:07.546Z,22.40
2023-03-06T20:11:36.805Z,18.17
2023-03-06T20:14:09.885Z,20.27
2023-03-06T20:16:38.773Z,26.25
2023-03-06T20:19:08.772Z,21.15
2023-03-06T20:21:38.102Z,21.95
2023-03-06T20:24:09.012Z,22.75
2023-03-06T20:26:38.688Z,22.02
2023-03-06T20:29:08.648Z,22.60
2023-03-06T20:31:37.380Z,27.88
2023-03-06T20:34:06.757Z,22.77
2023-03-06T20:36:37.910Z,23.67
2023-03-06T20:39:09.462Z,20.63
2023-03-06T20:41:38.267Z,22.77
2023-03-06T20:44:13.135Z,24.92
2023-03-06T20:46:42.309Z,24.00
2023-03-06T20:49:12.806Z,21.73
2023-03-06T20:51:42.466Z,21.60
2023-03-06T20:54:13.223Z,21.77
2023-03-06T20:56:44.993Z,26.42
2023-03-06T21:01:45.440Z,18.95
2023-03-06T21:04:15.977Z,21.08
2023-03-06T21:06:47.022Z,17.30
2023-03-06T21:09:17.405Z,20.40
2023-03-06T21:11:46.681Z,21.00
2023-03-06T21:14:17.043Z,21.08
2023-03-06T21:16:45.611Z,17.75
2023-03-06T21:19:14.454Z,20.00
2023-03-06T21:21:43.386Z,17.38
2023-03-06T21:24:12.179Z,19.70
2023-03-06T21:26:41.261Z,16.73
2023-03-06T21:29:11.227Z,20.60
2023-03-06T21:31:41.783Z,19.42
2023-03-06T21:34:11.640Z,18.58
2023-03-06T21:36:40.266Z,19.10
2023-03-06T21:39:09.903Z,18.60
2023-03-06T21:41:42.102Z,20.80
2023-03-06T21:44:11.939Z,14.88
2023-03-06T21:46:42.978Z,16.90
2023-03-06T21:49:11.872Z,17.35
2023-03-06T21:51:40.615Z,17.88
2023-03-06T21:54:10.310Z,17.30
2023-03-06T21:56:38.847Z,17.70
2023-03-06T21:59:07.559Z,19.15
2023-03-06T22:01:36.740Z,20.23
2023-03-06T22:04:07.172Z,17.27
2023-03-06T22:06:36.324Z,18.63
2023-03-06T22:09:05.474Z,19.10
2023-03-06T22:11:37.129Z,17.20
2023-03-06T22:14:05.914Z,16.17
2023-03-06T22:16:34.878Z,13.60
2023-03-06T22:19:03.777Z,19.77
2023-03-06T22:21:33.906Z,17.98
2023-03-06T22:24:02.550Z,18.83
2023-03-06T22:26:31.515Z,16.90
2023-03-06T22:29:00.264Z,17.17
2023-03-06T22:31:29.841Z,20.05
2023-03-06T22:34:00.393Z,20.45
2023-03-06T22:36:31.716Z,20.95
2023-03-06T22:39:04.606Z,19.70
2023-03-06T22:41:33.498Z,18.95
2023-03-06T22:44:03.451Z,19.67
2023-03-06T22:46:32.334Z,21.95
2023-03-06T22:49:02.460Z,18.90
2023-03-06T22:51:31.136Z,18.27
2023-03-06T22:53:59.987Z,21.88
2023-03-06T22:56:30.268Z,20.52
2023-03-06T22:58:59.272Z,20.02
2023-03-06T23:01:29.861Z,21.35
2023-03-06T23:04:00.111Z,20.88
2023-03-06T23:06:30.835Z,17.75
2023-03-06T23:09:01.427Z,19.25
2023-03-06T23:11:31.860Z,18.73
2023-03-06T23:14:20.718Z,19.35
2023-03-06T23:17:07.620Z,17.70
2023-03-06T23:19:54.830Z,20.45
2023-03-06T23:22:42.043Z,16.92
2023-03-06T23:25:29.296Z,18.65
2023-03-06T23:27:59.691Z,17.55
2023-03-06T23:30:28.355Z,24.85
2023-03-06T23:32:57.253Z,26.52
2023-03-06T23:35:25.919Z,23.02
2023-03-06T23:37:54.650Z,23.85
2023-03-06T23:40:23.336Z,19.98
2023-03-06T23:42:51.814Z,24.00
2023-03-06T23:45:22.021Z,23.73
2023-03-06T23:47:50.881Z,25.23
2023-03-06T23:50:19.824Z,18.48
2023-03-06T23:52:48.408Z,24.38
2023-03-06T23:55:17.056Z,22.13
2023-03-06T23:57:45.747Z,23.30
